Decoded Metar for PAKF (FALSE PASS in AK, US) (IATA:) | Meteo·Mobile Aviation Weather
aviador You're here:

PAKF Decoded Metar

FALSE PASS in AK, US
Report Time2018-10-18 08:56:00
UTC Time2018-10-18 09:19:53
Flight Rules mvfr MVFR
WindVRB at 05 kt
Visibility8047 m
Phenomena:Light Rain
Clouds:Few 027 Hf
Broken 040 Hf
Overcast 048 Hf
Expected CloudBase > 800 ft AGL from Temp-Dew spread
Ceiling4,000 ft
Temp08°C (ISA -7)
Dew Point06°C (87% RH)
AAT5.3°C
QNH1001 hPa
Density Alt-282 ft
Elevation19 ft
Report Wrong Elevation
Raw Report
PAKF 180856Z AUTO VRB05KT 5SM -RA FEW027 BKN040 OVC048 08/06 A2956
RMK AO2 SLP011 6//// T00830056 401000044 51012 PNO $=

Extra information for PAKF:More info

Metar Taf Metar & Taf Last 4 Metars F.Rules Stats Wind Profile Meteogram Temp Stats Airport Information Weather charts Add Link Nearby VenuesMetar ALERT Operation Metar Decoded Social comments